Time;durP1;ratioP1;P1;durP2;ratioP2;P2;SDS_P1;SDS_P2;PMS_P1;PMS_P2;Temp;Humidity;BMP_temperature;BMP_pressure;BME280_temperature;BME280_humidity;BME280_pressure;Samples;Min_cycle;Max_cycle;Signal;HPM_P1;HPM_P2
2023/09/08 00:00:09;;;;;;;19.80;10.93;;;;;;;-145.18;100.00;46656.50;5093264;28;20114;-59
2023/09/08 00:02:34;;;;;;;22.60;11.80;;;;;;;-145.18;100.00;46646.72;5092894;28;20032;-59
2023/09/08 00:05:00;;;;;;;27.40;13.47;;;;;;;-145.18;100.00;46646.72;5090075;28;20568;-59
2023/09/08 00:07:25;;;;;;;24.63;13.07;;;;;;;-145.18;100.00;46644.78;5093083;28;20031;-59
2023/09/08 00:09:51;;;;;;;26.93;13.70;;;;;;;-145.18;100.00;46648.69;5093508;28;20419;-59
2023/09/08 00:12:16;;;;;;;27.20;12.67;;;;;;;-145.18;100.00;46652.59;5089890;28;20499;-59
2023/09/08 00:14:42;;;;;;;28.00;13.87;;;;;;;-145.18;100.00;46654.53;5089322;28;20036;-59
2023/09/08 00:17:08;;;;;;;23.60;12.57;;;;;;;-145.18;100.00;46650.63;5088820;28;20039;-59
2023/09/08 00:19:33;;;;;;;28.80;13.17;;;;;;;-145.18;100.00;46650.63;5089332;28;20040;-60
2023/09/08 00:21:58;;;;;;;22.47;12.63;;;;;;;-145.18;100.00;46654.53;5115821;27;20040;-59
2023/09/08 00:24:24;;;;;;;21.60;11.13;;;;;;;-145.18;100.00;46648.69;5092631;28;20539;-59
2023/09/08 00:26:49;;;;;;;21.13;10.93;;;;;;;-145.18;100.00;46650.63;5091234;28;20157;-59
2023/09/08 00:29:15;;;;;;;21.63;11.23;;;;;;;-145.18;100.00;46644.78;5088683;28;20032;-59
2023/09/08 00:31:40;;;;;;;17.30;10.63;;;;;;;-145.18;100.00;46681.88;5090907;28;20044;-59
2023/09/08 00:34:06;;;;;;;21.30;10.80;;;;;;;-145.18;100.00;46644.78;5089738;28;20490;-59
2023/09/08 00:36:32;;;;;;;21.73;12.37;;;;;;;-145.18;100.00;46660.41;5092795;28;20039;-59
2023/09/08 00:38:57;;;;;;;23.10;11.83;;;;;;;-145.18;100.00;46644.78;5093005;28;20040;-59
2023/09/08 00:41:23;;;;;;;23.53;12.27;;;;;;;-145.18;100.00;46681.88;5090775;28;20131;-59
2023/09/08 00:43:49;;;;;;;19.07;11.07;;;;;;;-145.18;100.00;46660.41;5089300;28;20032;-59
2023/09/08 00:46:15;;;;;;;20.80;12.03;;;;;;;-145.18;100.00;46681.88;5088137;28;20028;-59
2023/09/08 00:48:41;;;;;;;21.50;11.20;;;;;;;-145.18;100.00;46679.94;5090536;28;20060;-60
2023/09/08 00:51:09;;;;;;;20.03;11.97;;;;;;;-145.18;100.00;46679.94;5091319;28;20039;-59
2023/09/08 00:53:35;;;;;;;20.47;11.97;;;;;;;-145.18;100.00;46681.88;5092337;28;20074;-59
2023/09/08 00:56:00;;;;;;;21.27;12.17;;;;;;;-145.18;100.00;46642.81;5089820;28;20032;-59
2023/09/08 00:58:26;;;;;;;17.70;10.50;;;;;;;-145.18;100.00;46646.72;5090325;28;20035;-59
2023/09/08 01:00:52;;;;;;;18.60;10.20;;;;;;;-145.18;100.00;46642.81;5089225;28;20040;-59
2023/09/08 01:03:17;;;;;;;17.20;10.50;;;;;;;-145.18;100.00;46679.94;5092216;28;20035;-59
2023/09/08 01:05:43;;;;;;;17.60;10.23;;;;;;;-145.18;100.00;46681.88;5081703;28;20032;-59
2023/09/08 01:08:09;;;;;;;18.20;10.43;;;;;;;-145.18;100.00;46677.97;5110333;27;20490;-59
2023/09/08 01:10:36;;;;;;;15.83;9.53;;;;;;;-145.18;100.00;46660.41;5092963;28;20111;-59
2023/09/08 01:13:02;;;;;;;17.27;9.60;;;;;;;-145.18;100.00;46679.94;5088066;28;20051;-59
2023/09/08 01:15:28;;;;;;;17.70;10.20;;;;;;;-145.18;100.00;46660.41;5091566;28;20485;-58
2023/09/08 01:17:54;;;;;;;15.20;10.90;;;;;;;-145.18;100.00;46660.41;5089898;28;20028;-59
2023/09/08 01:20:24;;;;;;;15.30;10.13;;;;;;;-145.18;100.00;46677.97;5090927;28;20502;-58
2023/09/08 01:23:01;;;;;;;14.80;10.17;;;;;;;-145.18;100.00;46660.41;5089811;28;20049;-61
2023/09/08 01:25:28;;;;;;;17.33;10.07;;;;;;;-145.18;100.00;46660.41;5090333;28;20071;-59
2023/09/08 01:27:57;;;;;;;13.07;9.60;;;;;;;-145.18;100.00;46660.41;5091049;28;20024;-59
2023/09/08 01:30:26;;;;;;;15.10;10.23;;;;;;;-145.18;100.00;46660.41;5088879;28;20019;-59
2023/09/08 01:32:53;;;;;;;15.83;10.57;;;;;;;-145.18;100.00;46660.41;5091988;28;20040;-59
2023/09/08 01:35:19;;;;;;;13.57;9.60;;;;;;;-145.18;100.00;46660.41;5086817;28;20039;-59
2023/09/08 01:37:46;;;;;;;12.73;8.60;;;;;;;-145.18;100.00;46660.41;5090620;28;20032;-58
2023/09/08 01:40:12;;;;;;;14.13;9.77;;;;;;;-145.18;100.00;46660.41;5088817;28;20056;-59
2023/09/08 01:42:39;;;;;;;16.70;9.50;;;;;;;-145.18;100.00;46660.41;5089938;28;20070;-59
2023/09/08 01:45:06;;;;;;;15.37;10.00;;;;;;;-145.18;100.00;46660.41;5090072;28;20110;-59
2023/09/08 01:47:31;;;;;;;14.63;8.80;;;;;;;-145.18;100.00;46660.41;5091935;28;20035;-59
2023/09/08 01:49:56;;;;;;;14.43;9.33;;;;;;;-145.18;100.00;46660.41;5086698;28;20153;-59
2023/09/08 01:52:22;;;;;;;15.80;9.47;;;;;;;-145.18;100.00;46660.41;5089753;28;20407;-59
2023/09/08 01:54:47;;;;;;;13.90;9.40;;;;;;;-145.18;100.00;46660.41;5091689;28;20028;-59
2023/09/08 01:57:13;;;;;;;16.73;10.07;;;;;;;-145.18;100.00;46660.41;5089772;28;20556;-59
2023/09/08 01:59:38;;;;;;;16.13;9.80;;;;;;;-145.18;100.00;46660.41;5089736;28;20021;-58
2023/09/08 02:02:04;;;;;;;15.53;10.13;;;;;;;-145.18;100.00;46660.41;5090299;28;20032;-59
2023/09/08 02:04:29;;;;;;;29.53;10.27;;;;;;;-145.18;100.00;46660.41;5091369;28;20034;-58
2023/09/08 02:06:54;;;;;;;15.07;9.27;;;;;;;-145.18;100.00;46660.41;5088150;28;20396;-59
2023/09/08 02:09:20;;;;;;;14.67;9.43;;;;;;;-145.18;100.00;46660.41;5090131;28;20024;-58
2023/09/08 02:11:45;;;;;;;13.80;8.80;;;;;;;-145.18;100.00;46660.41;5089234;28;20032;-59
2023/09/08 02:14:11;;;;;;;14.47;8.97;;;;;;;-145.18;100.00;46660.41;5091255;28;20402;-59
2023/09/08 02:16:36;;;;;;;17.23;9.37;;;;;;;-145.18;100.00;46660.41;5089797;28;20033;-59
2023/09/08 02:19:01;;;;;;;15.90;9.73;;;;;;;-145.18;100.00;46660.41;5088840;28;20054;-59
2023/09/08 02:21:27;;;;;;;15.77;9.50;;;;;;;-145.18;100.00;46660.41;5088375;28;20054;-59
2023/09/08 02:23:52;;;;;;;14.83;9.73;;;;;;;-145.18;100.00;46660.41;5090295;28;20054;-58
2023/09/08 02:26:18;;;;;;;13.67;9.23;;;;;;;-145.18;100.00;46660.41;5088176;28;20081;-59
2023/09/08 02:28:43;;;;;;;12.87;9.10;;;;;;;-145.18;100.00;46660.41;5089449;28;20091;-59
2023/09/08 02:31:09;;;;;;;12.47;9.60;;;;;;;-145.18;100.00;46660.41;5086218;28;20395;-61
2023/09/08 02:33:34;;;;;;;14.80;9.67;;;;;;;-145.18;100.00;46660.41;5089130;28;20031;-59
2023/09/08 02:36:06;;;;;;;14.20;9.90;;;;;;;-145.18;100.00;46660.41;5090390;28;20024;-59
2023/09/08 02:38:32;;;;;;;17.83;9.83;;;;;;;-145.18;100.00;46660.41;5094037;28;20028;-59
2023/09/08 02:40:57;;;;;;;13.60;9.40;;;;;;;-145.18;100.00;46660.41;5093933;28;20029;-59
2023/09/08 02:43:23;;;;;;;12.83;9.13;;;;;;;-145.18;100.00;46658.44;5094211;28;20106;-59
2023/09/08 02:45:49;;;;;;;14.97;9.40;;;;;;;-145.18;100.00;46660.41;5090957;28;20537;-59
2023/09/08 02:48:14;;;;;;;13.77;9.40;;;;;;;-145.18;100.00;46660.41;5092629;28;20032;-58
2023/09/08 02:50:39;;;;;;;17.67;10.13;;;;;;;-145.18;100.00;46660.41;5093239;28;20392;-58
2023/09/08 02:53:05;;;;;;;16.30;10.53;;;;;;;-145.18;100.00;46660.41;5092715;28;20043;-59
2023/09/08 02:55:30;;;;;;;17.80;10.20;;;;;;;-145.18;100.00;46660.41;5092584;28;20110;-59
2023/09/08 02:57:56;;;;;;;17.47;11.07;;;;;;;-145.18;100.00;46656.50;5090010;28;20034;-59
2023/09/08 03:00:22;;;;;;;16.20;11.10;;;;;;;-145.18;100.00;46660.41;5092278;28;20472;-59
2023/09/08 03:02:47;;;;;;;17.57;10.33;;;;;;;-145.18;100.00;46660.41;5094496;28;20073;-59
2023/09/08 03:05:12;;;;;;;19.67;10.23;;;;;;;-145.18;100.00;46660.41;5073780;28;20039;-59
2023/09/08 03:07:39;;;;;;;17.87;10.47;;;;;;;-145.18;100.00;46660.41;5094612;28;20028;-58
2023/09/08 03:10:05;;;;;;;19.60;10.73;;;;;;;-145.18;100.00;46660.41;5092994;28;20059;-58
2023/09/08 03:12:30;;;;;;;21.33;9.70;;;;;;;-145.18;100.00;46660.41;5087168;28;20104;-59
2023/09/08 03:14:56;;;;;;;19.90;11.27;;;;;;;-145.18;100.00;46660.41;5094421;28;20031;-59
2023/09/08 03:17:21;;;;;;;16.73;10.53;;;;;;;-145.18;100.00;46660.41;5091293;28;20089;-59
2023/09/08 03:19:47;;;;;;;19.50;10.17;;;;;;;-145.18;100.00;46660.41;5092719;28;20038;-59
2023/09/08 03:22:12;;;;;;;20.33;9.97;;;;;;;-145.18;100.00;46660.41;5091548;28;20061;-59
2023/09/08 03:24:37;;;;;;;21.03;11.77;;;;;;;-145.18;100.00;46660.41;5091384;28;20032;-59
2023/09/08 03:27:03;;;;;;;20.57;10.40;;;;;;;-145.18;100.00;46660.41;5093595;28;20055;-58
2023/09/08 03:29:28;;;;;;;21.43;11.23;;;;;;;-145.18;100.00;46660.41;5091507;28;20392;-59
2023/09/08 03:31:54;;;;;;;26.37;12.53;;;;;;;-145.18;100.00;46660.41;5092436;28;20036;-59
2023/09/08 03:34:20;;;;;;;24.63;11.87;;;;;;;-145.18;100.00;46658.44;5087173;28;20492;-59
2023/09/08 03:36:46;;;;;;;28.97;12.30;;;;;;;-145.18;100.00;46660.41;5092352;28;20111;-59
2023/09/08 03:39:12;;;;;;;23.63;11.60;;;;;;;-145.18;100.00;46660.41;5093865;28;20054;-59
2023/09/08 03:41:37;;;;;;;27.60;12.83;;;;;;;-145.18;100.00;46656.50;5092761;28;20428;-59
2023/09/08 03:44:03;;;;;;;25.73;11.97;;;;;;;-145.18;100.00;46660.41;5093715;28;20040;-59
2023/09/08 03:46:28;;;;;;;20.50;12.07;;;;;;;-145.18;100.00;46658.44;5082953;28;20111;-59
2023/09/08 03:48:58;;;;;;;25.00;12.80;;;;;;;-145.18;100.00;46660.41;5085893;28;20024;-59
2023/09/08 03:51:24;;;;;;;28.10;12.80;;;;;;;-145.18;100.00;46660.41;5093519;28;20111;-59
2023/09/08 03:53:49;;;;;;;20.57;11.27;;;;;;;-145.18;100.00;46660.41;5093718;28;20123;-59
2023/09/08 03:56:15;;;;;;;20.77;10.40;;;;;;;-145.18;100.00;46660.41;5087974;28;20016;-59
2023/09/08 03:58:40;;;;;;;21.97;10.90;;;;;;;-145.18;100.00;46660.41;5093416;28;20403;-59
2023/09/08 04:01:05;;;;;;;18.07;11.00;;;;;;;-145.18;100.00;46660.41;5091600;28;20036;-59
2023/09/08 04:03:31;;;;;;;26.07;10.83;;;;;;;-145.18;100.00;46660.41;5092506;28;20031;-59
2023/09/08 04:05:56;;;;;;;19.63;10.57;;;;;;;-145.18;100.00;46660.41;5093383;28;20124;-59
2023/09/08 04:08:21;;;;;;;15.10;9.10;;;;;;;-145.18;100.00;46658.44;5087867;28;20074;-59
2023/09/08 04:10:47;;;;;;;18.63;11.20;;;;;;;-145.18;100.00;46660.41;5092226;28;20500;-59
2023/09/08 04:13:12;;;;;;;19.07;11.07;;;;;;;-145.18;100.00;46660.41;5092224;28;20097;-59
2023/09/08 04:15:38;;;;;;;18.77;9.77;;;;;;;-145.18;100.00;46660.41;5091535;28;20034;-59
2023/09/08 04:18:03;;;;;;;18.27;10.80;;;;;;;-145.18;100.00;46660.41;5093839;28;20395;-59
2023/09/08 04:20:28;;;;;;;16.63;10.13;;;;;;;-145.18;100.00;46658.44;5088094;28;20514;-59
2023/09/08 04:22:54;;;;;;;14.43;9.40;;;;;;;-145.18;100.00;46660.41;5093236;28;20694;-59
2023/09/08 04:25:19;;;;;;;16.97;9.50;;;;;;;-145.18;100.00;46660.41;5092069;28;20066;-59
2023/09/08 04:27:45;;;;;;;15.90;10.77;;;;;;;-145.18;100.00;46660.41;5090271;28;20032;-59
2023/09/08 04:30:11;;;;;;;14.00;10.13;;;;;;;-145.18;100.00;46660.41;5091058;28;20058;-59
2023/09/08 04:32:37;;;;;;;21.03;10.63;;;;;;;-145.18;100.00;46660.41;5088488;28;20089;-59
2023/09/08 04:35:03;;;;;;;17.73;11.00;;;;;;;-145.18;100.00;46660.41;5118662;27;20281;-59
2023/09/08 04:37:30;;;;;;;21.93;11.33;;;;;;;-145.18;100.00;46660.41;5091866;28;20047;-59
2023/09/08 04:39:55;;;;;;;21.53;11.60;;;;;;;-145.18;100.00;46660.41;5086097;28;20032;-59
2023/09/08 04:42:21;;;;;;;20.63;11.17;;;;;;;-145.18;100.00;46660.41;5085586;28;20082;-59
2023/09/08 04:44:46;;;;;;;21.90;11.77;;;;;;;-145.18;100.00;46660.41;5092022;28;20055;-59
2023/09/08 04:47:12;;;;;;;27.73;11.97;;;;;;;-145.18;100.00;46660.41;5086379;28;20714;-59
2023/09/08 04:49:37;;;;;;;22.87;12.43;;;;;;;-145.18;100.00;46660.41;5089473;28;20107;-59
2023/09/08 04:52:03;;;;;;;24.63;12.33;;;;;;;-145.18;100.00;46660.41;5089682;28;20387;-59
2023/09/08 04:54:28;;;;;;;25.70;13.23;;;;;;;-145.18;100.00;46660.41;5089211;28;20032;-59
2023/09/08 04:56:54;;;;;;;28.10;12.93;;;;;;;-145.18;100.00;46660.41;5087742;28;20046;-59
2023/09/08 04:59:20;;;;;;;30.57;13.73;;;;;;;-145.18;100.00;46660.41;5086944;28;20031;-59
2023/09/08 05:01:46;;;;;;;24.77;12.07;;;;;;;-145.18;100.00;46660.41;5089780;28;20028;-59
2023/09/08 05:04:11;;;;;;;27.33;13.60;;;;;;;-145.18;100.00;46660.41;5090635;28;20040;-59
2023/09/08 05:06:37;;;;;;;27.53;13.30;;;;;;;-145.18;100.00;46660.41;5089037;28;20031;-59
2023/09/08 05:09:02;;;;;;;31.10;14.77;;;;;;;-145.18;100.00;46660.41;5088039;28;20553;-59
2023/09/08 05:11:28;;;;;;;29.30;13.47;;;;;;;-145.18;100.00;46660.41;5090868;28;20035;-59
2023/09/08 05:13:53;;;;;;;30.57;13.53;;;;;;;-145.18;100.00;46660.41;5089022;28;20031;-59
2023/09/08 05:16:25;;;;;;;28.70;12.50;;;;;;;-145.18;100.00;46660.41;5089121;28;20028;-62
2023/09/08 05:18:51;;;;;;;20.80;12.27;;;;;;;-145.18;100.00;46660.41;5092429;28;20156;-59
2023/09/08 05:21:17;;;;;;;19.97;12.37;;;;;;;-145.18;100.00;46660.41;5084457;28;20044;-59
2023/09/08 05:23:42;;;;;;;22.27;12.47;;;;;;;-145.18;100.00;46660.41;5090386;28;20028;-59
2023/09/08 05:26:07;;;;;;;20.83;11.17;;;;;;;-145.18;100.00;46660.41;5093226;28;20028;-59
2023/09/08 05:28:33;;;;;;;21.27;11.83;;;;;;;-145.18;100.00;46660.41;5087590;28;20133;-59
2023/09/08 05:30:58;;;;;;;20.50;11.33;;;;;;;-145.18;100.00;46660.41;5089573;28;20043;-59
2023/09/08 05:33:23;;;;;;;19.40;11.47;;;;;;;-145.18;100.00;46660.41;5091295;28;20043;-59
2023/09/08 05:35:53;;;;;;;21.50;12.80;;;;;;;-145.18;100.00;46660.41;5091558;28;20036;-59
2023/09/08 05:38:18;;;;;;;27.73;14.13;;;;;;;-145.18;100.00;46660.41;5089760;28;20033;-59
2023/09/08 05:40:44;;;;;;;27.10;13.27;;;;;;;-145.18;100.00;46660.41;5089052;28;20035;-59
2023/09/08 05:43:09;;;;;;;26.43;13.23;;;;;;;-145.18;100.00;46660.41;5085179;28;20056;-59
2023/09/08 05:45:34;;;;;;;21.30;12.73;;;;;;;-145.18;100.00;46660.41;5090796;28;20115;-58
2023/09/08 05:48:01;;;;;;;20.70;11.90;;;;;;;-145.18;100.00;46660.41;5088602;28;20025;-58
2023/09/08 05:50:26;;;;;;;22.50;12.43;;;;;;;-145.18;100.00;46660.41;5087250;28;20028;-59
2023/09/08 05:52:52;;;;;;;21.57;12.60;;;;;;;-145.18;100.00;46660.41;5085659;28;20043;-59
2023/09/08 05:55:18;;;;;;;25.00;12.87;;;;;;;-145.18;100.00;46660.41;5089801;28;20028;-59
2023/09/08 05:57:43;;;;;;;26.23;13.40;;;;;;;-145.18;100.00;46660.41;5085968;28;20036;-59
2023/09/08 06:00:09;;;;;;;22.50;13.53;;;;;;;-145.18;100.00;46660.41;5089700;28;20039;-63
2023/09/08 06:02:34;;;;;;;28.70;13.53;;;;;;;-145.18;100.00;46660.41;5085688;28;20085;-63
2023/09/08 06:04:59;;;;;;;23.27;12.33;;;;;;;-145.18;100.00;46660.41;5086648;28;20045;-63
2023/09/08 06:07:25;;;;;;;22.00;12.77;;;;;;;-145.18;100.00;46660.41;5085252;28;20501;-63
2023/09/08 06:09:50;;;;;;;20.90;12.67;;;;;;;-145.18;100.00;46660.41;5086663;28;20103;-63
2023/09/08 06:12:15;;;;;;;19.77;12.47;;;;;;;-145.18;100.00;46660.41;5087676;28;20032;-63
2023/09/08 06:14:41;;;;;;;20.73;13.10;;;;;;;-145.18;100.00;46660.41;5089375;28;20495;-63
2023/09/08 06:17:06;;;;;;;23.13;13.30;;;;;;;-145.18;100.00;46660.41;5090438;28;20032;-63
2023/09/08 06:19:32;;;;;;;19.63;12.27;;;;;;;-145.18;100.00;46660.41;5089537;28;20024;-63
2023/09/08 06:21:58;;;;;;;19.27;13.43;;;;;;;-145.18;100.00;46660.41;5114654;27;20121;-63
2023/09/08 06:24:24;;;;;;;18.60;12.93;;;;;;;-145.18;100.00;46658.44;5090131;28;20446;-63
2023/09/08 06:26:49;;;;;;;20.00;12.37;;;;;;;-145.18;100.00;46660.41;5089733;28;20119;-63
2023/09/08 06:29:15;;;;;;;20.17;12.50;;;;;;;-145.18;100.00;46660.41;5091485;28;20487;-63
2023/09/08 06:31:40;;;;;;;21.80;13.97;;;;;;;-145.18;100.00;46660.41;5088602;28;20479;-63
2023/09/08 06:34:05;;;;;;;21.20;13.13;;;;;;;-145.18;100.00;46660.41;5087201;28;20510;-63
2023/09/08 06:36:31;;;;;;;19.80;13.77;;;;;;;-145.18;100.00;46660.41;5086566;28;20076;-63
2023/09/08 06:38:56;;;;;;;20.00;13.20;;;;;;;-145.18;100.00;46627.19;5082408;28;20040;-63
2023/09/08 06:41:23;;;;;;;20.83;13.67;;;;;;;-145.18;100.00;46627.19;5075810;28;20035;-64
2023/09/08 06:43:49;;;;;;;19.03;13.07;;;;;;;-145.18;100.00;46660.41;5089091;28;20483;-64
2023/09/08 06:46:14;;;;;;;19.00;13.47;;;;;;;-145.18;100.00;46660.41;5090898;28;20115;-64
2023/09/08 06:48:40;;;;;;;19.60;12.47;;;;;;;-145.18;100.00;46660.41;5084874;28;20038;-64
2023/09/08 06:51:05;;;;;;;19.83;13.37;;;;;;;-145.18;100.00;46660.41;5090401;28;20506;-64
2023/09/08 06:53:30;;;;;;;18.60;12.80;;;;;;;-145.18;100.00;46660.41;5085896;28;20028;-64
2023/09/08 06:55:56;;;;;;;17.07;13.23;;;;;;;-145.18;100.00;46660.41;5086180;28;20044;-64
2023/09/08 06:58:21;;;;;;;16.70;13.00;;;;;;;-145.18;100.00;46660.41;5090720;28;20387;-64
2023/09/08 07:00:49;;;;;;;19.33;13.37;;;;;;;-145.18;100.00;46660.41;5088355;28;20028;-64
2023/09/08 07:03:14;;;;;;;17.33;14.07;;;;;;;-145.18;100.00;46660.41;5088898;28;20036;-64
2023/09/08 07:05:40;;;;;;;18.20;13.73;;;;;;;-145.18;100.00;46623.28;5085369;28;20039;-64
2023/09/08 07:08:06;;;;;;;19.03;12.73;;;;;;;-145.18;100.00;46625.22;5089697;28;20475;-64
2023/09/08 07:10:32;;;;;;;20.73;13.37;;;;;;;-145.18;100.00;46621.31;5090879;28;20032;-60
2023/09/08 07:12:57;;;;;;;17.60;13.73;;;;;;;-145.18;100.00;46623.28;5089742;28;20467;-60
2023/09/08 07:15:23;;;;;;;17.73;13.03;;;;;;;-145.18;100.00;46623.28;5091781;28;20036;-60
2023/09/08 07:17:48;;;;;;;21.03;14.00;;;;;;;-145.18;100.00;46625.22;5090760;28;20067;-60
2023/09/08 07:20:14;;;;;;;19.57;13.97;;;;;;;-145.18;100.00;46627.19;5087761;28;20043;-61
2023/09/08 07:22:39;;;;;;;19.63;13.20;;;;;;;-145.18;100.00;46625.22;5090808;28;20044;-60
2023/09/08 07:25:05;;;;;;;20.97;13.70;;;;;;;-145.18;100.00;46621.31;5092654;28;20471;-61
2023/09/08 07:27:31;;;;;;;19.43;13.80;;;;;;;-145.18;100.00;46623.28;5093577;28;20130;-60
2023/09/08 07:29:56;;;;;;;19.13;13.57;;;;;;;-145.18;100.00;46625.22;5093087;28;20492;-60
2023/09/08 07:32:23;;;;;;;20.60;14.47;;;;;;;-145.18;100.00;46621.31;5093148;28;20510;-60
2023/09/08 07:34:54;;;;;;;20.23;14.50;;;;;;;-145.18;100.00;46627.19;5091606;28;20044;-60
2023/09/08 07:37:22;;;;;;;18.93;14.23;;;;;;;-145.18;100.00;46623.28;5092939;28;20484;-60
2023/09/08 07:39:48;;;;;;;17.53;13.23;;;;;;;-145.18;100.00;46625.22;5091932;28;20047;-60
2023/09/08 07:42:14;;;;;;;20.77;14.13;;;;;;;-145.18;100.00;46627.19;5094470;28;20028;-61
2023/09/08 07:44:39;;;;;;;19.70;13.60;;;;;;;-145.18;100.00;46623.28;5122356;27;20399;-60
2023/09/08 07:47:05;;;;;;;17.17;13.93;;;;;;;-145.18;100.00;46629.13;5092231;28;20391;-60
2023/09/08 07:49:32;;;;;;;18.80;14.50;;;;;;;-145.18;100.00;46621.31;5090341;28;20025;-60
2023/09/08 07:51:58;;;;;;;16.03;13.33;;;;;;;-145.18;100.00;46627.19;5094136;28;20119;-60
2023/09/08 07:54:23;;;;;;;15.00;12.43;;;;;;;-145.18;100.00;46627.19;5091513;28;20115;-61
2023/09/08 07:56:48;;;;;;;19.47;13.73;;;;;;;-145.18;100.00;46633.06;5094337;28;20044;-61
2023/09/08 07:59:14;;;;;;;18.73;13.57;;;;;;;-145.18;100.00;46633.06;5092400;28;20074;-60
2023/09/08 08:01:39;;;;;;;18.40;12.63;;;;;;;-145.18;100.00;46633.06;5088988;28;20028;-60
2023/09/08 08:04:04;;;;;;;20.63;14.10;;;;;;;-145.18;100.00;46635.00;5091120;28;20111;-60
2023/09/08 08:06:30;;;;;;;18.07;14.17;;;;;;;-145.18;100.00;46635.00;5121450;27;20032;-61
2023/09/08 08:08:56;;;;;;;16.77;14.17;;;;;;;-145.18;100.00;46636.94;5091424;28;20468;-61
2023/09/08 08:11:22;;;;;;;19.37;13.50;;;;;;;-145.18;100.00;46638.91;5090507;28;20062;-61
2023/09/08 08:13:47;;;;;;;20.13;14.80;;;;;;;-145.18;100.00;46635.00;5089063;28;20031;-60
2023/09/08 08:16:13;;;;;;;20.17;14.33;;;;;;;-145.18;100.00;46636.94;5097489;28;20038;-61
2023/09/08 08:18:38;;;;;;;20.00;15.00;;;;;;;-145.18;100.00;46642.81;5088855;28;20025;-60
2023/09/08 08:21:04;;;;;;;19.97;14.93;;;;;;;-145.18;100.00;46635.00;5087933;28;20153;-61
2023/09/08 08:23:30;;;;;;;21.93;14.90;;;;;;;-145.18;100.00;46638.91;5090450;28;20073;-60
2023/09/08 08:25:56;;;;;;;19.40;14.17;;;;;;;-145.18;100.00;46636.94;5090353;28;20035;-61
2023/09/08 08:28:21;;;;;;;20.83;14.50;;;;;;;-145.18;100.00;46640.88;5092203;28;20028;-61
2023/09/08 08:30:47;;;;;;;17.67;14.47;;;;;;;-145.18;100.00;46638.91;5090867;28;20028;-61
2023/09/08 08:33:13;;;;;;;20.70;13.77;;;;;;;-145.18;100.00;46644.78;5087915;28;20372;-61
2023/09/08 08:35:39;;;;;;;20.70;14.00;;;;;;;-145.18;100.00;46642.81;5093207;28;20032;-61
2023/09/08 08:38:04;;;;;;;20.70;14.07;;;;;;;-145.18;100.00;46652.59;5092851;28;20497;-61
2023/09/08 08:40:31;;;;;;;22.87;14.03;;;;;;;-145.18;100.00;46648.69;5090692;28;20542;-61
2023/09/08 08:42:57;;;;;;;18.47;14.33;;;;;;;-145.18;100.00;46654.53;5082578;28;20527;-61
2023/09/08 08:45:27;;;;;;;21.67;14.38;;;;;;;-145.18;100.00;46644.78;5076639;28;20032;-61
2023/09/08 08:47:53;;;;;;;17.80;14.80;;;;;;;-145.18;100.00;46652.59;5091765;28;20036;-61
2023/09/08 08:50:20;;;;;;;19.13;14.85;;;;;;;-145.18;100.00;46650.63;5087230;28;20027;-61
2023/09/08 08:52:46;;;;;;;23.02;13.93;;;;;;;-145.18;100.00;46648.69;5089177;28;20111;-61
2023/09/08 08:55:12;;;;;;;19.15;14.07;;;;;;;-145.18;100.00;46640.88;5086059;28;20027;-61
2023/09/08 08:57:39;;;;;;;16.52;13.45;;;;;;;-145.18;100.00;46650.63;5084807;28;20016;-61
2023/09/08 09:00:10;;;;;;;20.27;13.70;;;;;;;-145.18;100.00;46656.50;5086422;28;20047;-61
2023/09/08 09:02:38;;;;;;;16.98;13.13;;;;;;;-145.18;100.00;46664.31;5088848;28;20023;-61
2023/09/08 09:05:05;;;;;;;16.65;12.43;;;;;;;-145.18;100.00;46660.41;5091432;28;20089;-61
2023/09/08 09:07:31;;;;;;;21.27;13.90;;;;;;;-145.18;100.00;46664.31;5092196;28;20063;-61
2023/09/08 09:09:57;;;;;;;16.52;13.43;;;;;;;-145.18;100.00;46660.41;5092495;28;20032;-61
2023/09/08 09:12:22;;;;;;;18.33;13.00;;;;;;;-145.18;100.00;46640.88;5092543;28;20081;-61
2023/09/08 09:14:48;;;;;;;18.42;13.23;;;;;;;-145.18;100.00;46648.69;5090658;28;20027;-61
2023/09/08 09:17:14;;;;;;;19.83;12.52;;;;;;;-145.18;100.00;46658.44;5095149;28;20028;-61
2023/09/08 09:19:40;;;;;;;13.68;11.32;;;;;;;-145.18;100.00;46631.09;5092009;28;20391;-61
2023/09/08 09:22:05;;;;;;;16.45;11.25;;;;;;;-145.18;100.00;46554.91;5092421;28;20048;-61
2023/09/08 09:24:40;;;;;;;20.42;11.63;;;;;;;-145.18;100.00;46527.56;5090982;28;20028;-61
2023/09/08 09:27:06;;;;;;;;;;;;;;;-145.18;100.00;46529.53;5091485;28;20032;-61
2023/09/08 09:29:32;;;;;;;;;;;;;;;-145.18;100.00;46529.53;5088630;28;19923;-61
2023/09/08 09:32:10;;;;;;;;;;;;;;;-145.18;100.00;46531.47;5092957;28;19916;-62
2023/09/08 09:34:35;;;;;;;15.57;11.82;;;;;;;-145.18;100.00;46527.56;5091027;28;19923;-61
2023/09/08 09:37:01;;;;;;;16.10;12.93;;;;;;;-145.18;100.00;46527.56;5088483;28;20036;-61
2023/09/08 09:39:27;;;;;;;14.65;11.13;;;;;;;-145.18;100.00;46527.56;5086999;28;20417;-62
2023/09/08 09:41:57;;;;;;;15.05;11.75;;;;;;;-145.18;100.00;46519.75;5115306;27;20035;-61
2023/09/08 09:44:23;;;;;;;16.92;12.07;;;;;;;-145.18;100.00;46523.66;5087079;28;20429;-62
2023/09/08 09:46:51;;;;;;;19.27;11.70;;;;;;;-145.18;100.00;46523.66;5090964;28;20111;-61
2023/09/08 09:49:19;;;;;;;15.00;11.40;;;;;;;-145.18;100.00;46521.72;5088522;28;20119;-62
2023/09/08 09:51:53;;;;;;;16.75;11.10;;;;;;;-145.18;100.00;46517.81;5090758;28;20442;-61
2023/09/08 09:54:19;;;;;;;14.65;10.32;;;;;;;-145.18;100.00;46511.94;5087514;28;20032;-62
2023/09/08 09:56:47;;;;;;;12.63;11.10;;;;;;;-145.18;100.00;46500.22;5089983;28;20027;-61
2023/09/08 09:59:13;;;;;;;17.27;10.82;;;;;;;-145.18;100.00;46498.28;5086140;28;20028;-61
2023/09/08 10:01:40;;;;;;;17.35;11.18;;;;;;;-145.18;100.00;46490.47;5091960;28;20032;-62
2023/09/08 10:04:06;;;;;;;15.88;10.98;;;;;;;-145.18;100.00;46488.50;5086947;28;20502;-61
2023/09/08 10:06:34;;;;;;;19.67;10.35;;;;;;;-145.18;100.00;46484.59;5090674;28;20032;-61
2023/09/08 10:09:04;;;;;;;16.15;11.02;;;;;;;-145.18;100.00;46470.94;5088449;28;20020;-62
2023/09/08 10:11:40;;;;;;;16.20;10.98;;;;;;;-145.18;100.00;46457.25;5086575;28;20040;-62
2023/09/08 10:14:11;;;;;;;17.60;10.95;;;;;;;-145.18;100.00;46474.84;5089626;28;20111;-62
2023/09/08 10:16:39;;;;;;;18.83;11.52;;;;;;;-145.18;100.00;46482.66;5087148;28;20043;-62
2023/09/08 10:19:08;;;;;;;19.50;11.93;;;;;;;-145.18;100.00;46439.69;5091484;28;20032;-61
2023/09/08 10:21:39;;;;;;;16.27;11.43;;;;;;;-145.18;100.00;46625.22;5084051;28;20454;-62
2023/09/08 10:24:38;;;;;;;18.58;12.98;;;;;;;-145.18;90.25;46826.44;5088979;28;20029;-62
2023/09/08 10:27:11;;;;;;;16.83;12.23;;;;;;;-145.18;75.27;46931.91;5055740;28;20150;-61
2023/09/08 10:29:39;;;;;;;13.50;10.48;;;;;;;-145.18;100.00;46619.38;5086531;28;20090;-61
2023/09/08 10:32:09;;;;;;;13.77;10.18;;;;;;;-145.18;91.73;46627.19;5085663;28;20460;-62
2023/09/08 10:34:36;;;;;;;12.45;10.20;;;;;;;-145.18;82.11;46812.75;5091956;28;20039;-62
2023/09/08 10:37:03;;;;;;;12.23;8.50;;;;;;;-145.18;75.31;46785.41;5093852;28;20028;-62
2023/09/08 10:39:35;;;;;;;13.07;9.65;;;;;;;-145.18;61.15;46953.41;5087761;28;20052;-62
2023/09/08 10:42:23;;;;;;;13.50;10.95;;;;;;;-145.18;38.79;46996.38;5089699;28;20028;-61
2023/09/08 10:44:51;;;;;;;12.48;10.13;;;;;;;-145.18;83.12;46672.13;5089514;28;20052;-62
2023/09/08 10:47:23;;;;;;;18.08;10.48;;;;;;;-145.18;28.75;46994.44;5086681;28;20365;-62
2023/09/08 10:49:53;;;;;;;12.18;10.15;;;;;;;-145.18;17.59;46961.22;5115876;27;20034;-62
2023/09/08 10:52:21;;;;;;;12.38;9.45;;;;;;;-145.18;21.64;46980.75;5087108;28;20028;-62